Time;durP1;ratioP1;P1;durP2;ratioP2;P2;SDS_P1;SDS_P2;PMS_P1;PMS_P2;Temp;Humidity;BMP_temperature;BMP_pressure;BME280_temperature;BME280_humidity;BME280_pressure;Samples;Min_cycle;Max_cycle;Signal;HPM_P1;HPM_P2
2023/05/08 00:06:55;;;;;;;8.50;5.38;;;19.40;84.50;;;;;;5059783;28;20195;-68
2023/05/08 00:12:42;;;;;;;8.77;5.85;;;19.50;85.30;;;;;;5074807;28;20043;-68
2023/05/08 00:15:09;;;;;;;6.07;5.47;;;19.50;85.20;;;;;;5074807;28;20395;-68
2023/05/08 00:17:35;;;;;;;7.28;5.30;;;19.50;85.30;;;;;;5074131;28;20393;-68
2023/05/08 00:20:01;;;;;;;6.10;4.75;;;19.50;84.50;;;;;;5073791;28;20021;-68
2023/05/08 00:22:27;;;;;;;7.13;4.53;;;19.40;84.70;;;;;;5075171;28;20387;-68
2023/05/08 00:24:53;;;;;;;10.95;5.20;;;19.40;85.00;;;;;;5074729;28;20021;-69
2023/05/08 00:27:19;;;;;;;7.03;4.90;;;19.40;84.60;;;;;;5074732;28;20024;-68
2023/05/08 00:29:46;;;;;;;9.10;4.97;;;19.40;84.80;;;;;;5074720;28;20364;-68
2023/05/08 00:32:12;;;;;;;7.72;5.22;;;19.40;84.70;;;;;;5074741;28;20390;-68
2023/05/08 00:34:38;;;;;;;5.97;5.00;;;19.40;85.10;;;;;;5074807;28;20027;-69
2023/05/08 00:37:04;;;;;;;5.00;4.50;;;19.50;84.70;;;;;;5074640;28;20028;-68
2023/05/08 00:39:30;;;;;;;6.32;4.90;;;19.50;85.20;;;;;;5074504;28;20035;-68
2023/05/08 00:41:55;;;;;;;6.28;4.82;;;19.50;84.60;;;;;;5074611;28;20062;-69
2023/05/08 00:44:21;;;;;;;6.07;4.75;;;19.60;83.80;;;;;;5074579;28;20493;-69
2023/05/08 00:46:47;;;;;;;6.38;4.93;;;19.60;84.20;;;;;;5074426;28;20025;-68
2023/05/08 00:49:14;;;;;;;7.22;4.90;;;19.60;84.50;;;;;;5074084;28;20479;-68
2023/05/08 00:51:46;;;;;;;7.47;5.20;;;19.60;84.20;;;;;;5074430;28;20345;-68
2023/05/08 00:54:13;;;;;;;6.65;5.32;;;19.60;84.20;;;;;;5074283;28;20025;-68
2023/05/08 00:56:39;;;;;;;6.55;5.57;;;19.60;84.00;;;;;;5074317;28;20462;-68
2023/05/08 00:59:10;;;;;;;9.23;5.05;;;19.60;83.40;;;;;;5071413;28;20034;-68
2023/05/08 01:01:37;;;;;;;8.15;5.18;;;19.70;83.70;;;;;;5071498;28;20755;-68
2023/05/08 01:04:04;;;;;;;5.65;4.63;;;19.70;83.90;;;;;;5071862;28;20386;-68
2023/05/08 01:06:30;;;;;;;4.38;3.97;;;19.60;84.50;;;;;;5073888;28;20052;-69
2023/05/08 01:08:56;;;;;;;6.50;4.25;;;19.60;83.50;;;;;;5073902;28;20044;-68
2023/05/08 01:11:43;;;;;;;6.50;4.05;;;19.60;83.30;;;;;;5072497;28;20117;-69
2023/05/08 01:14:28;;;;;;;4.38;3.80;;;19.50;83.40;;;;;;5073551;28;20474;-69
2023/05/08 01:17:22;;;;;;;6.15;3.97;;;19.60;83.20;;;;;;5073851;28;20386;-67
2023/05/08 01:19:57;;;;;;;6.93;3.67;;;19.60;83.10;;;;;;5074619;28;20383;-69
2023/05/08 01:22:29;;;;;;;6.63;3.88;;;19.60;82.70;;;;;;5073939;28;20420;-67
2023/05/08 01:25:13;;;;;;;5.72;3.85;;;19.60;83.10;;;;;;5074395;28;20369;-68
2023/05/08 01:48:50;;;;;;;5.45;3.78;;;19.50;82.30;;;;;;4972796;28;20078;-68
2023/05/08 01:55:02;;;;;;;5.18;3.60;;;19.50;82.10;;;;;;4895313;29;20494;-68
2023/05/08 01:57:30;;;;;;;5.50;3.28;;;19.60;81.80;;;;;;4911018;28;20038;-68
2023/05/08 01:59:59;;;;;;;3.00;2.70;;;19.60;82.50;;;;;;5068863;28;20363;-67
2023/05/08 02:02:28;;;;;;;6.38;3.70;;;19.60;82.20;;;;;;5071679;28;20070;-68
2023/05/08 02:04:56;;;;;;;3.80;3.03;;;19.60;82.00;;;;;;5073049;28;20056;-68
2023/05/08 02:07:23;;;;;;;3.45;3.03;;;19.60;81.70;;;;;;5072779;28;20031;-68
2023/05/08 02:09:49;;;;;;;4.45;3.00;;;19.60;81.50;;;;;;5072743;28;20025;-70
2023/05/08 02:12:17;;;;;;;3.50;3.00;;;19.60;81.40;;;;;;5071512;28;20458;-68
2023/05/08 02:14:46;;;;;;;4.13;2.95;;;19.60;81.30;;;;;;5071565;28;20385;-68
2023/05/08 02:17:14;;;;;;;4.00;2.83;;;19.60;81.20;;;;;;5072997;28;20381;-68
2023/05/08 02:19:42;;;;;;;4.18;2.60;;;19.60;81.20;;;;;;5072713;28;20031;-68
2023/05/08 02:22:09;;;;;;;4.95;2.72;;;19.60;80.80;;;;;;5072429;28;20028;-70
2023/05/08 02:24:36;;;;;;;3.30;2.60;;;19.60;81.60;;;;;;5072987;28;20024;-69
2023/05/08 02:27:03;;;;;;;4.15;2.85;;;19.50;81.60;;;;;;5072898;28;20088;-68
2023/05/08 02:29:30;;;;;;;3.72;3.10;;;19.50;82.10;;;;;;5072359;28;20016;-68
2023/05/08 02:31:57;;;;;;;4.10;2.80;;;19.50;82.10;;;;;;5076722;22;20408;-68
2023/05/08 02:34:23;;;;;;;4.93;3.20;;;19.50;82.40;;;;;;5072480;28;20511;-68
2023/05/08 02:36:53;;;;;;;3.92;2.90;;;19.40;82.40;;;;;;5072890;28;20024;-68
2023/05/08 02:39:23;;;;;;;3.22;2.72;;;19.30;82.80;;;;;;5072790;28;20436;-68
2023/05/08 02:41:49;;;;;;;2.13;1.92;;;19.30;82.40;;;;;;5072596;28;20035;-69
2023/05/08 02:44:16;;;;;;;2.95;2.10;;;19.30;81.50;;;;;;5072549;28;20079;-68
2023/05/08 02:46:48;;;;;;;3.60;2.40;;;19.40;81.10;;;;;;5072209;28;20029;-70
2023/05/08 02:49:23;;;;;;;5.93;2.30;;;19.40;80.50;;;;;;5072240;28;20021;-68
2023/05/08 02:52:21;;;;;;;3.42;2.00;;;19.40;80.30;;;;;;5072579;28;20056;-68
2023/05/08 02:55:13;;;;;;;3.00;2.08;;;19.40;80.00;;;;;;5073219;28;20096;-68
2023/05/08 02:58:29;;;;;;;4.78;2.33;;;19.50;79.70;;;;;;5073070;28;20021;-68
2023/05/08 03:01:36;;;;;;;5.45;2.00;;;19.50;79.50;;;;;;5037879;28;20041;-68
2023/05/08 03:08:16;;;;;;;3.05;2.40;;;19.50;80.40;;;;;;4932949;29;20044;-68
2023/05/08 03:18:04;;;;;;;2.45;2.10;;;19.50;79.70;;;;;;4847912;29;20049;-68
2023/05/08 03:27:37;;;;;;;1.95;1.70;;;19.50;79.30;;;;;;4857165;29;20048;-68
2023/05/08 03:30:05;;;;;;;4.20;2.30;;;19.50;79.10;;;;;;4839633;29;20485;-68
2023/05/08 03:32:32;;;;;;;2.15;1.80;;;19.50;79.00;;;;;;5046505;28;20045;-68
2023/05/08 03:35:00;;;;;;;2.55;1.60;;;19.50;78.50;;;;;;5073795;28;20119;-68
2023/05/08 03:37:29;;;;;;;1.88;1.60;;;19.50;78.90;;;;;;5076155;28;20025;-68
2023/05/08 03:39:55;;;;;;;1.98;1.45;;;19.50;78.30;;;;;;5075774;28;20449;-68
2023/05/08 03:42:25;;;;;;;3.70;1.52;;;19.50;78.00;;;;;;5075668;28;20038;-67
2023/05/08 03:44:52;;;;;;;2.45;1.52;;;19.50;78.10;;;;;;5075708;28;20029;-68
2023/05/08 03:47:19;;;;;;;3.70;1.60;;;19.50;78.50;;;;;;5075347;28;20024;-68
2023/05/08 03:49:46;;;;;;;1.60;1.50;;;19.50;78.10;;;;;;5075293;28;20077;-68
2023/05/08 03:52:13;;;;;;;2.25;1.80;;;19.50;78.10;;;;;;5075488;28;20029;-68
2023/05/08 03:54:39;;;;;;;2.35;1.80;;;19.50;78.20;;;;;;5075525;28;20492;-68
2023/05/08 03:57:05;;;;;;;1.80;1.40;;;19.40;78.70;;;;;;5075570;28;20020;-69
2023/05/08 03:59:53;;;;;;;2.08;1.58;;;19.40;78.80;;;;;;5075430;28;20102;-68
2023/05/08 04:02:27;;;;;;;4.40;1.80;;;19.40;78.50;;;;;;5075343;28;20512;-68
2023/05/08 04:05:13;;;;;;;2.50;1.60;;;19.40;78.50;;;;;;5075357;28;20504;-68
2023/05/08 04:07:49;;;;;;;2.60;1.90;;;19.40;79.30;;;;;;5075351;28;20363;-68
2023/05/08 04:10:31;;;;;;;2.33;1.52;;;19.40;79.40;;;;;;5075075;28;20029;-66
2023/05/08 04:13:07;;;;;;;3.00;1.90;;;19.40;79.80;;;;;;5075025;28;20033;-67
2023/05/08 04:15:42;;;;;;;2.67;1.90;;;19.40;79.60;;;;;;5075389;28;20024;-67
2023/05/08 04:18:11;;;;;;;3.08;2.08;;;19.40;79.60;;;;;;5075286;28;20025;-68
2023/05/08 04:20:40;;;;;;;3.97;2.88;;;19.40;79.60;;;;;;5075019;28;20074;-68
2023/05/08 04:23:08;;;;;;;2.13;1.90;;;19.40;79.40;;;;;;5075006;28;20021;-69
2023/05/08 04:25:36;;;;;;;2.78;2.47;;;19.40;79.20;;;;;;5074878;28;20115;-69
2023/05/08 04:28:02;;;;;;;4.55;2.95;;;19.40;78.80;;;;;;5074924;28;20066;-68
2023/05/08 04:30:29;;;;;;;3.00;2.70;;;19.40;79.00;;;;;;5075138;28;20048;-68
2023/05/08 04:32:56;;;;;;;4.40;2.83;;;19.40;78.80;;;;;;5075049;28;20086;-68
2023/05/08 04:35:22;;;;;;;4.55;3.28;;;19.40;80.50;;;;;;5075080;28;20047;-67
2023/05/08 04:37:48;;;;;;;4.15;2.97;;;19.30;82.40;;;;;;5075351;28;20028;-68
2023/05/08 04:40:14;;;;;;;8.77;3.78;;;19.10;83.20;;;;;;5075127;28;20086;-68
2023/05/08 04:42:41;;;;;;;5.30;4.10;;;19.00;84.10;;;;;;5074050;28;20031;-68
2023/05/08 04:48:58;;;;;;;7.15;5.22;;;18.80;86.70;;;;;;4973394;28;20066;-68
2023/05/08 04:51:50;;;;;;;7.70;4.95;;;18.60;87.50;;;;;;5012863;28;20033;-68
2023/05/08 04:55:02;;;;;;;7.57;4.87;;;18.60;88.70;;;;;;5067753;28;20047;-68
2023/05/08 05:01:05;;;;;;;7.65;5.13;;;18.50;89.60;;;;;;5012066;28;20269;-68
2023/05/08 05:03:40;;;;;;;6.88;5.70;;;18.40;90.00;;;;;;5046886;28;20111;-68
2023/05/08 05:06:05;;;;;;;6.00;5.03;;;18.40;90.20;;;;;;5074211;28;20033;-69
2023/05/08 05:08:40;;;;;;;5.78;5.20;;;18.40;90.40;;;;;;5073954;28;20078;-68
2023/05/08 05:11:10;;;;;;;9.50;4.95;;;18.40;90.30;;;;;;5073425;28;20039;-68
2023/05/08 05:13:36;;;;;;;7.72;5.13;;;18.40;90.50;;;;;;5073826;28;20031;-66
2023/05/08 05:16:02;;;;;;;4.93;4.43;;;18.30;90.70;;;;;;5073958;28;20020;-68
2023/05/08 05:18:28;;;;;;;5.60;4.65;;;18.40;90.70;;;;;;5073839;28;20032;-67
2023/05/08 05:20:57;;;;;;;8.75;4.82;;;18.40;90.80;;;;;;5073898;28;20046;-68
2023/05/08 05:23:22;;;;;;;8.32;4.13;;;18.50;90.70;;;;;;5073588;28;20459;-68
2023/05/08 05:25:48;;;;;;;7.40;4.20;;;18.50;90.80;;;;;;5073597;28;20099;-69
2023/05/08 05:28:14;;;;;;;6.43;4.50;;;18.50;90.60;;;;;;5072098;28;20029;-68
2023/05/08 05:30:40;;;;;;;5.10;4.28;;;18.60;90.80;;;;;;5073463;28;20016;-69
2023/05/08 05:33:05;;;;;;;7.90;3.88;;;18.60;90.70;;;;;;5072420;28;20067;-67
2023/05/08 05:35:31;;;;;;;4.53;3.53;;;18.70;90.60;;;;;;5072693;28;20154;-68
2023/05/08 05:37:57;;;;;;;4.68;3.78;;;18.70;90.60;;;;;;5073093;28;20032;-68
2023/05/08 05:40:23;;;;;;;6.25;4.00;;;18.80;90.50;;;;;;5073157;28;20020;-69
2023/05/08 05:42:52;;;;;;;7.30;4.22;;;18.90;90.40;;;;;;5072122;28;20074;-68
2023/05/08 05:45:18;;;;;;;5.22;3.85;;;18.90;90.30;;;;;;5073261;28;20516;-68
2023/05/08 05:47:48;;;;;;;8.68;4.45;;;19.00;90.60;;;;;;5073199;28;20032;-68
2023/05/08 05:50:17;;;;;;;7.65;4.25;;;19.10;90.70;;;;;;5072971;28;20079;-69
2023/05/08 05:52:43;;;;;;;7.13;3.58;;;19.10;90.60;;;;;;5072721;28;20083;-69
2023/05/08 05:55:09;;;;;;;6.15;3.35;;;19.10;90.20;;;;;;5072809;28;20104;-68
2023/05/08 05:57:35;;;;;;;7.85;3.72;;;19.10;90.30;;;;;;5072381;28;20050;-69
2023/05/08 06:00:01;;;;;;;4.68;3.50;;;19.20;90.40;;;;;;5072956;28;20021;-69
2023/05/08 06:02:27;;;;;;;7.10;4.10;;;19.10;90.60;;;;;;5072743;28;20046;-68
2023/05/08 06:04:53;;;;;;;7.68;5.22;;;19.20;90.30;;;;;;5073013;28;20021;-68
2023/05/08 06:07:20;;;;;;;9.30;4.78;;;19.20;90.20;;;;;;5073318;28;20024;-68
2023/05/08 06:09:46;;;;;;;8.40;5.25;;;19.20;90.50;;;;;;5073082;28;20020;-70
2023/05/08 06:12:12;;;;;;;9.50;5.22;;;19.20;90.60;;;;;;5072591;28;20083;-68
2023/05/08 06:14:38;;;;;;;8.65;6.10;;;19.20;90.50;;;;;;5072428;28;20056;-68
2023/05/08 06:17:04;;;;;;;10.50;5.63;;;19.30;90.50;;;;;;5072869;28;20035;-67
2023/05/08 06:19:30;;;;;;;11.90;6.00;;;19.40;90.40;;;;;;5073456;28;20070;-67
2023/05/08 06:21:55;;;;;;;8.65;5.53;;;19.40;90.30;;;;;;5073146;28;20028;-67
2023/05/08 06:24:21;;;;;;;8.18;5.60;;;19.40;90.50;;;;;;5072965;28;20017;-67
2023/05/08 06:26:48;;;;;;;9.82;6.03;;;19.40;90.70;;;;;;5072772;28;20032;-67
2023/05/08 06:33:22;;;;;;;11.90;5.88;;;19.40;91.40;;;;;;5029896;28;20076;-68
2023/05/08 06:36:46;;;;;;;12.50;5.30;;;19.30;91.20;;;;;;5030341;28;20036;-68
2023/05/08 06:43:50;;;;;;;6.03;4.53;;;19.40;90.90;;;;;;4933544;29;20087;-68
2023/05/08 06:50:24;;;;;;;11.40;5.85;;;19.40;91.40;;;;;;4914738;29;20096;-68
2023/05/08 06:53:23;;;;;;;14.43;5.68;;;19.40;91.90;;;;;;4919863;29;20072;-68
2023/05/08 06:55:49;;;;;;;10.93;6.00;;;19.30;91.80;;;;;;4947277;29;20460;-69
2023/05/08 06:58:15;;;;;;;11.45;4.85;;;19.30;91.80;;;;;;4982436;28;20071;-73
2023/05/08 07:00:41;;;;;;;7.95;4.88;;;19.30;91.10;;;;;;5021477;28;20040;-70
2023/05/08 07:03:07;;;;;;;9.20;5.22;;;19.40;91.80;;;;;;5071696;28;20363;-67
2023/05/08 07:05:33;;;;;;;9.40;5.38;;;19.40;91.80;;;;;;5072632;28;20063;-67
2023/05/08 07:07:59;;;;;;;10.27;5.32;;;19.40;91.80;;;;;;5072879;28;20028;-68
2023/05/08 07:10:25;;;;;;;10.40;5.68;;;19.30;92.10;;;;;;5076152;28;20028;-68
2023/05/08 07:12:51;;;;;;;7.60;5.97;;;19.30;92.70;;;;;;5075611;28;20033;-68
2023/05/08 07:15:17;;;;;;;10.25;6.47;;;19.20;92.50;;;;;;5076106;28;20024;-67
2023/05/08 07:17:42;;;;;;;16.00;6.95;;;19.20;93.10;;;;;;5075996;28;20418;-68
2023/05/08 07:20:08;;;;;;;8.90;6.10;;;19.20;93.20;;;;;;5075998;28;20052;-67
2023/05/08 07:22:34;;;;;;;10.25;6.80;;;19.20;93.20;;;;;;5075812;28;20024;-68
2023/05/08 07:25:00;;;;;;;8.07;7.00;;;19.20;93.30;;;;;;5075929;28;20063;-67
2023/05/08 07:27:26;;;;;;;9.40;7.07;;;19.20;92.60;;;;;;5076067;28;20035;-68
2023/05/08 07:29:51;;;;;;;9.20;6.80;;;19.20;92.60;;;;;;5076095;28;20074;-68
2023/05/08 07:32:17;;;;;;;9.45;6.15;;;19.20;92.80;;;;;;5074307;28;20061;-67
2023/05/08 07:34:43;;;;;;;8.25;6.45;;;19.20;93.00;;;;;;5075819;28;20051;-68
2023/05/08 07:37:09;;;;;;;11.18;6.88;;;19.20;92.80;;;;;;5075941;28;20024;-78
2023/05/08 07:39:35;;;;;;;10.00;6.07;;;19.30;92.80;;;;;;5076080;28;20029;-78
2023/05/08 07:42:01;;;;;;;8.02;5.35;;;19.30;92.40;;;;;;5076056;28;20032;-79
2023/05/08 07:44:26;;;;;;;7.40;5.10;;;19.40;92.00;;;;;;5075891;28;20027;-79
2023/05/08 07:46:52;;;;;;;8.68;4.43;;;19.40;91.80;;;;;;5075935;28;20154;-79
2023/05/08 07:49:18;;;;;;;5.43;4.68;;;19.50;91.50;;;;;;5075680;28;20047;-79
2023/05/08 07:51:44;;;;;;;5.75;4.38;;;19.50;91.40;;;;;;5075760;28;20029;-80
2023/05/08 07:54:10;;;;;;;6.88;4.30;;;19.50;91.40;;;;;;5075890;28;20099;-77
2023/05/08 07:56:35;;;;;;;5.40;4.38;;;19.60;91.20;;;;;;5074547;28;20020;-78
2023/05/08 07:59:01;;;;;;;4.55;4.03;;;19.60;90.70;;;;;;5076490;28;20032;-67
2023/05/08 08:01:27;;;;;;;7.90;4.68;;;19.60;90.60;;;;;;5076126;28;20462;-67
2023/05/08 08:03:53;;;;;;;5.95;3.72;;;19.60;90.60;;;;;;5076273;28;20020;-68
2023/05/08 08:06:19;;;;;;;7.47;4.00;;;19.70;90.30;;;;;;5076265;28;20360;-67
2023/05/08 08:08:45;;;;;;;5.72;3.50;;;19.70;90.10;;;;;;5074881;28;20469;-67
2023/05/08 08:11:14;;;;;;;3.88;2.83;;;19.80;89.80;;;;;;5075955;28;20028;-67
2023/05/08 08:14:35;;;;;;;4.28;3.50;;;19.80;89.00;;;;;;5075379;28;20048;-67
2023/05/08 08:17:52;;;;;;;3.25;2.80;;;19.80;88.10;;;;;;5013173;28;20029;-67
2023/05/08 08:21:22;;;;;;;6.50;3.50;;;19.70;87.90;;;;;;4896794;29;20049;-67
2023/05/08 08:31:18;;;;;;;4.60;2.65;;;19.80;89.30;;;;;;4847107;29;20556;-67
2023/05/08 08:34:02;;;;;;;3.28;2.53;;;19.70;88.90;;;;;;4873165;29;20052;-69
2023/05/08 08:37:03;;;;;;;6.90;3.20;;;19.80;89.30;;;;;;4963324;28;20046;-68
2023/05/08 08:39:35;;;;;;;5.50;2.90;;;19.80;91.30;;;;;;5056386;28;20040;-68
2023/05/08 08:42:01;;;;;;;9.82;2.70;;;19.80;91.10;;;;;;5092738;28;20043;-68
2023/05/08 08:44:27;;;;;;;3.85;3.38;;;19.80;91.10;;;;;;5092614;28;20028;-68
2023/05/08 08:46:53;;;;;;;7.28;3.30;;;19.80;91.10;;;;;;5092368;28;20028;-67
2023/05/08 08:49:28;;;;;;;3.50;2.90;;;19.80;91.00;;;;;;5092507;28;20034;-68
2023/05/08 08:52:05;;;;;;;5.10;3.38;;;19.80;91.20;;;;;;5092682;28;20032;-67
2023/05/08 08:54:34;;;;;;;24.55;8.02;;;19.80;91.70;;;;;;5093701;28;20040;-67
2023/05/08 08:57:05;;;;;;;17.23;5.60;;;19.70;92.80;;;;;;5076542;28;20446;-67
2023/05/08 08:59:32;;;;;;;10.95;4.10;;;19.70;92.00;;;;;;5077335;28;20150;-68
2023/05/08 09:02:04;;;;;;;4.07;3.38;;;19.70;91.60;;;;;;5094177;28;20529;-67
2023/05/08 09:04:30;;;;;;;;;;;19.80;91.30;;;;;;5094551;28;20028;-68
2023/05/08 09:06:57;;;;;;;13.52;5.10;;;19.80;92.00;;;;;;5094167;28;19911;-67
2023/05/08 09:09:23;;;;;;;22.52;8.38;;;19.80;92.00;;;;;;5094148;28;20153;-66
2023/05/08 09:11:51;;;;;;;388.05;94.38;;;19.80;92.50;;;;;;5094019;28;20458;-67
2023/05/08 09:14:17;;;;;;;33.10;10.10;;;19.90;92.50;;;;;;5093825;28;20115;-67
2023/05/08 09:16:44;;;;;;;299.45;71.13;;;19.90;92.40;;;;;;5094274;28;20024;-67
2023/05/08 09:19:14;;;;;;;306.58;71.47;;;19.90;92.60;;;;;;5094170;28;20517;-66
2023/05/08 09:21:40;;;;;;;91.35;24.02;;;19.90;92.60;;;;;;5093850;28;20362;-67
2023/05/08 09:24:06;;;;;;;25.55;10.00;;;19.90;92.80;;;;;;5094004;28;20016;-67
2023/05/08 09:26:40;;;;;;;57.40;18.27;;;20.00;93.00;;;;;;5093975;28;20098;-67
2023/05/08 09:29:16;;;;;;;113.47;39.60;;;19.90;92.70;;;;;;5093824;28;20034;-66
2023/05/08 09:31:50;;;;;;;19.48;8.73;;;20.00;92.40;;;;;;5092861;28;20478;-66
2023/05/08 09:34:27;;;;;;;7.03;4.97;;;20.00;92.20;;;;;;5093595;28;20031;-68
2023/05/08 09:37:11;;;;;;;13.65;7.00;;;20.10;91.30;;;;;;5093490;28;20035;-69
2023/05/08 09:39:42;;;;;;;14.95;6.45;;;20.10;91.60;;;;;;5093564;28;20108;-71
2023/05/08 09:42:08;;;;;;;10.88;5.85;;;20.10;91.70;;;;;;5093828;28;20028;-69
2023/05/08 09:44:50;;;;;;;14.55;5.10;;;20.10;92.00;;;;;;5093389;28;20020;-69
2023/05/08 09:47:18;;;;;;;6.53;3.83;;;20.10;92.10;;;;;;5094304;28;20020;-69
2023/05/08 09:50:03;;;;;;;9.13;4.43;;;20.10;92.30;;;;;;5094036;28;20048;-69
2023/05/08 09:52:30;;;;;;;6.28;3.80;;;20.20;92.20;;;;;;5094062;28;20059;-68
2023/05/08 09:55:01;;;;;;;4.30;3.25;;;20.10;91.00;;;;;;5093445;28;20448;-68
2023/05/08 09:57:55;;;;;;;4.53;3.35;;;20.10;91.40;;;;;;5093258;28;20060;-69
2023/05/08 10:04:12;;;;;;;5.28;2.20;;;20.30;91.10;;;;;;4991638;28;20029;-68
2023/05/08 10:06:37;;;;;;;9.38;1.85;;;20.30;90.00;;;;;;5046731;28;20032;-69
2023/05/08 10:09:32;;;;;;;3.22;1.80;;;20.30;88.20;;;;;;5053397;28;20391;-69
2023/05/08 10:12:07;;;;;;;3.50;1.65;;;20.30;84.90;;;;;;5052949;28;20025;-69
2023/05/08 10:14:57;;;;;;;2.70;2.17;;;20.30;84.80;;;;;;5053172;28;20387;-69
2023/05/08 10:17:35;;;;;;;4.10;1.95;;;20.40;85.70;;;;;;5052792;28;20033;-68
2023/05/08 10:20:16;;;;;;;2.40;1.85;;;20.40;84.50;;;;;;5052636;28;20048;-69
2023/05/08 10:22:43;;;;;;;2.35;1.83;;;20.30;84.00;;;;;;5052315;28;20082;-69
2023/05/08 10:25:15;;;;;;;2.50;2.05;;;20.40;83.20;;;;;;5052281;28;20059;-69
2023/05/08 10:27:46;;;;;;;;;;;20.40;82.80;;;;;;5052650;28;20029;-69
2023/05/08 10:30:14;;;;;;;2.85;2.00;;;20.30;83.10;;;;;;5052522;28;20875;-69
2023/05/08 10:32:50;;;;;;;6.15;2.03;;;20.30;82.80;;;;;;5039010;28;20056;-69
2023/05/08 10:35:17;;;;;;;3.58;1.70;;;20.40;82.90;;;;;;5069561;28;20114;-69
2023/05/08 10:37:44;;;;;;;6.20;1.65;;;20.30;83.40;;;;;;5069981;28;20038;-69
2023/05/08 10:40:14;;;;;;;3.20;1.60;;;20.30;83.20;;;;;;5071913;28;20024;-69
2023/05/08 10:42:41;;;;;;;5.93;1.98;;;20.30;82.40;;;;;;5054123;28;20462;-69
2023/05/08 10:45:08;;;;;;;10.07;2.15;;;20.30;83.10;;;;;;5072039;28;20028;-69
2023/05/08 10:47:58;;;;;;;9.48;2.33;;;20.30;83.10;;;;;;5071737;28;20020;-69
2023/05/08 10:50:48;;;;;;;19.23;3.33;;;20.20;84.40;;;;;;5070819;28;20032;-69
2023/05/08 10:53:30;;;;;;;14.23;3.00;;;20.20;84.90;;;;;;5069109;28;20593;-69
2023/05/08 10:55:56;;;;;;;7.05;2.40;;;20.20;84.30;;;;;;5070031;28;20425;-69
2023/05/08 10:58:29;;;;;;;3.42;2.00;;;20.10;85.40;;;;;;5072019;28;20024;-69
2023/05/08 11:01:05;;;;;;;5.15;2.00;;;20.10;85.90;;;;;;5071716;28;20067;-69
2023/05/08 11:03:36;;;;;;;2.22;1.92;;;20.10;85.70;;;;;;5072286;28;20058;-70
2023/05/08 11:06:03;;;;;;;2.33;1.92;;;20.10;85.50;;;;;;5054496;28;20020;-74
2023/05/08 11:08:30;;;;;;;4.82;1.88;;;20.10;86.00;;;;;;5071805;28;20040;-73
2023/05/08 11:10:59;;;;;;;1.88;1.70;;;20.10;87.10;;;;;;5072061;28;20020;-74
2023/05/08 11:13:49;;;;;;;1.77;1.50;;;20.10;87.00;;;;;;5072338;28;20068;-75
2023/05/08 11:16:15;;;;;;;1.83;1.70;;;20.10;87.40;;;;;;5072465;28;20459;-75
2023/05/08 11:19:15;;;;;;;3.60;1.60;;;20.10;87.00;;;;;;5072018;28;20070;-75
2023/05/08 11:22:25;;;;;;;4.00;1.48;;;20.10;86.40;;;;;;5071538;28;20025;-74
2023/05/08 11:25:09;;;;;;;2.25;1.98;;;20.00;86.90;;;;;;5071945;28;20103;-80
2023/05/08 11:27:47;;;;;;;3.67;2.20;;;20.00;86.90;;;;;;5073540;28;20047;-68
2023/05/08 11:30:31;;;;;;;4.80;2.10;;;20.00;86.60;;;;;;5073068;28;20427;-66
2023/05/08 13:04:06;;;;;;;2.50;2.30;;;19.20;91.00;;;;;;5107062;27;20058;-69
2023/05/08 13:06:32;;;;;;;2.78;2.45;;;19.20;91.40;;;;;;5083708;28;20047;-71
2023/05/08 13:08:58;;;;;;;3.00;2.20;;;19.20;90.90;;;;;;5106820;28;20338;-69
2023/05/08 13:11:29;;;;;;;2.80;2.20;;;19.20;91.40;;;;;;5112149;28;20126;-68
2023/05/08 13:13:55;;;;;;;2.90;2.30;;;19.20;91.50;;;;;;5096281;28;20036;-68
2023/05/08 13:16:57;;;;;;;3.30;2.85;;;19.20;91.50;;;;;;5115038;28;20269;-69
2023/05/08 13:19:47;;;;;;;2.85;2.25;;;19.20;91.60;;;;;;5114774;28;20053;-69
2023/05/08 13:22:51;;;;;;;6.07;2.33;;;19.30;91.50;;;;;;5114499;28;20504;-68
2023/05/08 13:25:17;;;;;;;3.72;2.78;;;19.30;91.90;;;;;;5011388;28;20385;-68
2023/05/08 13:28:00;;;;;;;3.55;2.05;;;19.30;91.20;;;;;;5011746;28;20048;-69
2023/05/08 13:37:22;;;;;;;2.50;2.20;;;19.30;90.20;;;;;;4954304;28;20093;-70
2023/05/08 13:46:55;;;;;;;2.42;2.10;;;19.30;90.90;;;;;;4863033;29;20025;-68
2023/05/08 13:49:23;;;;;;;2.45;2.00;;;19.30;90.60;;;;;;4913135;29;20134;-69
2023/05/08 13:51:49;;;;;;;3.72;2.30;;;19.30;90.40;;;;;;5029305;28;20392;-69
2023/05/08 13:54:15;;;;;;;4.38;2.35;;;19.30;90.10;;;;;;5113837;28;20103;-69
2023/05/08 13:56:41;;;;;;;3.58;2.10;;;19.30;91.00;;;;;;5113788;28;20059;-71
2023/05/08 13:59:07;;;;;;;4.13;2.30;;;19.30;90.80;;;;;;5113681;28;20125;-70
2023/05/08 14:01:33;;;;;;;2.38;2.17;;;19.30;90.90;;;;;;5113476;28;20039;-70
2023/05/08 14:03:58;;;;;;;4.85;2.45;;;19.20;90.90;;;;;;5113165;28;20047;-70
2023/05/08 14:06:24;;;;;;;2.38;2.00;;;19.30;90.50;;;;;;5112345;28;20055;-69
2023/05/08 14:08:50;;;;;;;5.38;2.10;;;19.20;91.30;;;;;;5112461;28;20078;-69
2023/05/08 14:11:16;;;;;;;2.25;2.00;;;19.20;90.80;;;;;;5112447;28;20073;-70
2023/05/08 14:13:42;;;;;;;3.67;1.90;;;19.20;90.30;;;;;;5112209;28;20071;-69
2023/05/08 14:16:09;;;;;;;4.07;1.90;;;19.20;90.40;;;;;;5112145;28;20031;-70
2023/05/08 14:18:35;;;;;;;2.40;1.98;;;19.20;90.20;;;;;;5112041;28;20130;-70
2023/05/08 14:21:00;;;;;;;2.70;2.15;;;19.20;89.90;;;;;;5113146;28;20107;-70
2023/05/08 14:23:26;;;;;;;2.08;1.70;;;19.20;89.80;;;;;;5113328;28;20036;-70
2023/05/08 14:25:52;;;;;;;2.00;1.73;;;19.20;89.50;;;;;;5113359;28;20470;-70
2023/05/08 14:28:18;;;;;;;2.70;2.10;;;19.20;88.90;;;;;;5113348;28;20036;-70
2023/05/08 14:30:44;;;;;;;1.70;1.60;;;19.20;88.50;;;;;;5113379;28;20074;-74
2023/05/08 14:33:10;;;;;;;2.20;1.90;;;19.20;88.20;;;;;;5095028;28;20063;-75
2023/05/08 14:35:35;;;;;;;2.97;2.00;;;19.20;88.20;;;;;;5113252;28;20111;-74
2023/05/08 14:38:01;;;;;;;2.30;2.00;;;19.20;88.20;;;;;;5112732;28;20035;-75
2023/05/08 14:40:27;;;;;;;4.55;1.83;;;19.20;87.80;;;;;;5113753;28;20106;-75
2023/05/08 14:42:53;;;;;;;3.47;1.85;;;19.20;88.10;;;;;;5096430;28;20039;-75
2023/05/08 14:45:19;;;;;;;2.00;1.73;;;19.20;87.60;;;;;;5114422;28;20024;-75
2023/05/08 14:47:45;;;;;;;2.85;1.90;;;19.20;87.80;;;;;;5113634;28;20071;-75
2023/05/08 14:50:10;;;;;;;2.22;2.03;;;19.20;88.30;;;;;;5113947;28;20062;-70
2023/05/08 14:52:36;;;;;;;2.17;1.88;;;19.20;88.40;;;;;;5113688;28;20043;-70
2023/05/08 14:55:02;;;;;;;3.97;1.60;;;19.20;88.30;;;;;;5113727;28;20023;-69
2023/05/08 14:57:28;;;;;;;1.90;1.65;;;19.20;88.00;;;;;;5113900;28;20037;-69
2023/05/08 14:59:55;;;;;;;2.90;2.08;;;19.20;88.40;;;;;;5113461;28;20028;-69
2023/05/08 15:02:22;;;;;;;1.85;1.70;;;19.10;88.60;;;;;;5113264;28;20294;-69
2023/05/08 15:05:27;;;;;;;2.10;1.90;;;19.10;88.90;;;;;;5112583;28;20040;-69
2023/05/08 15:11:48;;;;;;;3.10;1.98;;;19.10;88.70;;;;;;5113620;28;20081;-69
2023/05/08 15:14:45;;;;;;;2.72;1.90;;;19.10;89.50;;;;;;5112887;28;20036;-69
2023/05/08 15:17:57;;;;;;;4.45;1.60;;;19.10;90.00;;;;;;5112979;28;20089;-70
2023/05/08 15:23:44;;;;;;;1.83;1.73;;;19.00;89.20;;;;;;5112571;28;20039;-70
2023/05/08 15:29:32;;;;;;;3.05;2.22;;;18.90;89.90;;;;;;5050713;28;20066;-71
2023/05/08 15:31:58;;;;;;;2.30;1.90;;;18.90;90.40;;;;;;5116140;28;20071;-69
2023/05/08 15:34:23;;;;;;;3.42;2.35;;;18.90;90.60;;;;;;5116627;28;20028;-69
2023/05/08 15:36:49;;;;;;;2.03;1.70;;;18.80;90.60;;;;;;5116654;28;20032;-70
2023/05/08 15:39:15;;;;;;;2.92;2.00;;;18.80;90.70;;;;;;5116290;28;20063;-70
2023/05/08 15:41:41;;;;;;;7.47;1.70;;;18.80;91.70;;;;;;5116248;28;20035;-69
2023/05/08 15:44:07;;;;;;;2.60;1.83;;;18.70;91.30;;;;;;5116248;28;20476;-70
2023/05/08 15:46:33;;;;;;;2.47;1.70;;;18.70;91.80;;;;;;5116327;28;20046;-70
2023/05/08 15:48:58;;;;;;;2.33;1.73;;;18.70;92.10;;;;;;5116256;28;20072;-69
2023/05/08 15:51:25;;;;;;;2.60;1.60;;;18.70;92.10;;;;;;5116043;28;20035;-69
2023/05/08 15:53:51;;;;;;;2.92;1.85;;;18.70;91.70;;;;;;5116369;28;20043;-70
2023/05/08 15:56:25;;;;;;;2.28;1.42;;;18.60;91.30;;;;;;5116087;28;20031;-70
2023/05/08 15:58:51;;;;;;;2.88;1.90;;;18.60;91.60;;;;;;5116065;28;20096;-69
2023/05/08 16:01:18;;;;;;;2.25;1.60;;;18.60;91.90;;;;;;5097635;28;20430;-69
2023/05/08 16:03:44;;;;;;;1.80;1.55;;;18.60;91.80;;;;;;5116086;28;20032;-70
2023/05/08 16:06:10;;;;;;;5.05;1.83;;;18.60;91.40;;;;;;5116038;28;20070;-69
2023/05/08 16:08:35;;;;;;;4.28;1.83;;;18.60;92.00;;;;;;5115989;28;20039;-69
2023/05/08 16:11:02;;;;;;;2.28;2.08;;;18.60;92.10;;;;;;5115840;28;20063;-69
2023/05/08 16:13:28;;;;;;;2.03;1.50;;;18.60;91.80;;;;;;5115677;28;20055;-69
2023/05/08 16:15:53;;;;;;;2.42;1.73;;;18.60;91.20;;;;;;5115788;28;20031;-69
2023/05/08 16:18:19;;;;;;;2.45;1.55;;;18.60;92.10;;;;;;5115805;28;20040;-69
2023/05/08 16:20:45;;;;;;;2.45;1.58;;;18.60;91.40;;;;;;5115782;28;20024;-69
2023/05/08 16:23:13;;;;;;;2.00;1.55;;;18.60;91.60;;;;;;5115430;28;20058;-69
2023/05/08 16:25:39;;;;;;;1.77;1.52;;;18.60;91.60;;;;;;5115569;28;20031;-69